createdAt,value
2019-04-22T00:00:06.619Z,5.80
2019-04-22T00:01:05.781Z,5.50
2019-04-22T00:02:10.528Z,6.30
2019-04-22T00:03:10.288Z,5.10
2019-04-22T00:04:11.072Z,5.80
2019-04-22T00:05:17.911Z,5.50
2019-04-22T00:06:27.411Z,5.40
2019-04-22T00:07:28.632Z,5.20
2019-04-22T00:08:31.284Z,5.60
2019-04-22T00:09:30.995Z,5.60
2019-04-22T00:10:32.376Z,6.10
2019-04-22T00:11:46.673Z,5.40
2019-04-22T00:12:34.605Z,4.90
2019-04-22T00:13:37.581Z,6.20
2019-04-22T00:14:26.364Z,5.40
2019-04-22T00:15:29.202Z,6.10
2019-04-22T00:17:40.155Z,5.30
2019-04-22T00:18:52.996Z,5.60
2019-04-22T00:19:35.989Z,5.80
2019-04-22T00:20:30.422Z,5.90
2019-04-22T00:21:31.953Z,5.20
2019-04-22T00:22:32.642Z,5.20
2019-04-22T00:23:31.713Z,5.30
2019-04-22T00:24:30.730Z,5.70
2019-04-22T00:25:34.798Z,5.30
2019-04-22T00:26:37.529Z,5.30
2019-04-22T00:27:34.153Z,5.70
2019-04-22T00:28:33.413Z,5.60
2019-04-22T00:30:25.567Z,5.40
2019-04-22T00:31:28.581Z,5.50
2019-04-22T00:32:32.048Z,5.50
2019-04-22T00:33:34.231Z,5.60
2019-04-22T00:34:30.172Z,5.50
2019-04-22T00:35:33.169Z,5.80
2019-04-22T00:36:28.866Z,5.60
2019-04-22T00:37:31.503Z,5.60
2019-04-22T00:38:31.524Z,5.90
2019-04-22T00:39:37.151Z,5.50
2019-04-22T00:40:34.136Z,6.20
2019-04-22T00:41:31.571Z,5.30
2019-04-22T00:42:34.881Z,6.00
2019-04-22T00:43:33.355Z,6.00
2019-04-22T00:44:35.333Z,5.40
2019-04-22T00:45:34.469Z,5.50
2019-04-22T00:46:36.141Z,5.50
2019-04-22T00:47:32.190Z,5.60
2019-04-22T00:48:53.439Z,5.50
2019-04-22T00:50:06.601Z,5.70
2019-04-22T00:50:31.714Z,5.70
2019-04-22T00:51:36.445Z,6.00
2019-04-22T00:52:28.274Z,5.70
2019-04-22T00:53:31.313Z,5.60
2019-04-22T00:54:31.115Z,5.80
2019-04-22T00:55:34.260Z,6.10
2019-04-22T00:56:28.228Z,5.60
2019-04-22T00:57:29.606Z,5.60
2019-04-22T00:58:33.882Z,5.30
2019-04-22T00:59:29.678Z,5.80
2019-04-22T01:00:31.500Z,6.10
2019-04-22T01:01:50.173Z,5.90
2019-04-22T01:02:34.427Z,6.00
2019-04-22T01:03:38.704Z,6.10
2019-04-22T01:04:34.999Z,6.20
2019-04-22T01:05:34.448Z,5.90
2019-04-22T01:06:25.762Z,5.80
2019-04-22T01:07:30.147Z,6.90
2019-04-22T01:08:33.929Z,6.20
2019-04-22T01:09:37.036Z,6.00
2019-04-22T01:10:31.727Z,6.60
2019-04-22T01:11:32.303Z,6.20
2019-04-22T01:12:31.957Z,6.20
2019-04-22T01:14:29.669Z,6.40
2019-04-22T01:15:35.469Z,5.90
2019-04-22T01:16:30.940Z,6.80
2019-04-22T01:17:25.586Z,5.60
2019-04-22T01:18:32.692Z,6.40
2019-04-22T01:19:36.372Z,5.90
2019-04-22T01:20:58.863Z,6.30
2019-04-22T01:21:36.985Z,6.00
2019-04-22T01:22:27.092Z,6.90
2019-04-22T01:23:28.084Z,7.10
2019-04-22T01:24:27.722Z,6.40
2019-04-22T01:25:26.403Z,7.40
2019-04-22T01:26:20.225Z,7.40
2019-04-22T01:27:22.221Z,7.30
2019-04-22T01:28:21.828Z,7.10
2019-04-22T01:29:17.277Z,6.90
2019-04-22T01:30:19.751Z,7.50
2019-04-22T01:31:09.574Z,7.10
2019-04-22T01:32:13.214Z,8.90
2019-04-22T01:33:14.067Z,7.70
2019-04-22T01:34:21.972Z,8.00
2019-04-22T01:35:18.017Z,9.20
2019-04-22T01:36:24.640Z,9.00
2019-04-22T01:37:23.939Z,9.40
2019-04-22T01:38:23.662Z,10.50
2019-04-22T01:39:31.840Z,11.50
2019-04-22T01:40:33.420Z,14.20
2019-04-22T01:41:35.834Z,14.20
2019-04-22T01:42:33.850Z,13.50
2019-04-22T01:43:33.141Z,14.60
2019-04-22T01:44:33.268Z,14.60
2019-04-22T01:45:36.405Z,10.80
2019-04-22T01:46:32.079Z,13.20
2019-04-22T01:47:31.294Z,12.80
2019-04-22T01:48:32.975Z,10.30
2019-04-22T01:50:30.692Z,8.30
2019-04-22T01:51:44.047Z,8.80
2019-04-22T01:52:30.951Z,7.80
2019-04-22T01:53:33.497Z,8.60
2019-04-22T01:54:35.140Z,10.50
2019-04-22T01:55:35.744Z,9.20
2019-04-22T01:56:24.200Z,12.40
2019-04-22T01:57:31.714Z,13.00
2019-04-22T01:58:23.768Z,12.10
2019-04-22T01:59:19.887Z,12.20
2019-04-22T02:00:27.233Z,11.10
2019-04-22T02:01:34.968Z,11.60
2019-04-22T02:02:30.890Z,12.00
2019-04-22T02:03:36.069Z,11.80
2019-04-22T02:04:47.092Z,10.90
2019-04-22T02:05:29.033Z,8.90
2019-04-22T02:06:35.170Z,7.70
2019-04-22T02:07:29.432Z,8.20
2019-04-22T02:08:37.927Z,6.80
2019-04-22T02:09:47.494Z,7.20
2019-04-22T02:10:34.788Z,7.50
2019-04-22T02:11:32.564Z,7.50
2019-04-22T02:12:33.303Z,8.80
2019-04-22T02:13:32.142Z,8.10
2019-04-22T02:14:37.475Z,9.70
2019-04-22T02:15:34.592Z,8.70
2019-04-22T02:16:36.210Z,10.80
2019-04-22T02:17:33.301Z,9.70
2019-04-22T02:18:36.246Z,9.90
2019-04-22T02:19:48.478Z,8.80
2019-04-22T02:20:32.653Z,7.80
2019-04-22T02:21:34.279Z,7.20
2019-04-22T02:22:42.943Z,7.20
2019-04-22T02:24:33.404Z,6.80
2019-04-22T02:25:38.442Z,7.10
2019-04-22T02:26:38.238Z,7.10
2019-04-22T02:27:35.319Z,7.30
2019-04-22T02:29:42.505Z,7.20
2019-04-22T02:30:37.027Z,7.60
2019-04-22T02:32:49.489Z,7.30
2019-04-22T02:35:52.158Z,7.30
2019-04-22T02:37:30.107Z,7.20
2019-04-22T02:39:34.507Z,7.40
2019-04-22T02:40:46.152Z,7.70
2019-04-22T02:42:24.178Z,7.00
2019-04-22T02:45:39.409Z,7.40
2019-04-22T02:46:43.041Z,6.80
2019-04-22T02:47:31.032Z,7.20
2019-04-22T02:48:55.335Z,6.60
2019-04-22T02:49:45.390Z,7.00
2019-04-22T02:50:30.607Z,7.40
2019-04-22T02:51:32.584Z,6.60
2019-04-22T02:52:45.386Z,7.30
2019-04-22T02:55:34.858Z,6.90
2019-04-22T02:57:35.770Z,7.40
2019-04-22T02:58:49.994Z,6.40
2019-04-22T02:59:34.549Z,7.20
2019-04-22T03:00:40.195Z,7.20
2019-04-22T03:01:39.661Z,7.00
2019-04-22T03:02:48.819Z,7.20
2019-04-22T03:04:41.584Z,7.00
2019-04-22T03:05:48.914Z,7.90
2019-04-22T03:07:37.699Z,7.40
2019-04-22T03:09:30.980Z,7.80
2019-04-22T03:10:47.272Z,7.30
2019-04-22T03:11:33.474Z,8.10
2019-04-22T03:12:28.797Z,6.70
2019-04-22T03:14:30.260Z,7.20
2019-04-22T03:14:37.132Z,6.80
2019-04-22T03:15:50.869Z,6.20
2019-04-22T03:18:47.222Z,7.00
2019-04-22T03:19:47.868Z,7.40
2019-04-22T03:20:33.549Z,7.90
2019-04-22T03:21:31.903Z,8.10
2019-04-22T03:23:45.512Z,8.10
2019-04-22T03:24:35.802Z,7.50
2019-04-22T03:26:50.447Z,7.20
2019-04-22T03:27:42.824Z,8.00
2019-04-22T03:28:37.221Z,6.90
2019-04-22T03:29:46.667Z,7.30
2019-04-22T03:32:09.163Z,6.90
2019-04-22T03:33:43.987Z,6.20
2019-04-22T03:35:41.785Z,6.60
2019-04-22T03:37:07.073Z,6.40
2019-04-22T03:37:43.529Z,6.50
2019-04-22T03:39:01.234Z,6.40
2019-04-22T03:39:45.557Z,6.80
2019-04-22T03:40:42.044Z,6.50
2019-04-22T03:41:54.476Z,6.30
2019-04-22T03:42:32.057Z,6.30
2019-04-22T03:43:42.518Z,6.80
2019-04-22T03:46:41.883Z,6.60
2019-04-22T03:47:38.268Z,6.90
2019-04-22T03:48:38.168Z,6.60
2019-04-22T03:49:52.090Z,7.00
2019-04-22T03:52:03.121Z,6.40
2019-04-22T03:52:27.010Z,5.90
2019-04-22T03:53:33.533Z,6.50
2019-04-22T03:54:39.923Z,6.30
2019-04-22T03:55:28.968Z,5.70
2019-04-22T03:57:10.511Z,6.20
2019-04-22T03:57:49.635Z,6.20
2019-04-22T03:58:45.464Z,6.40
2019-04-22T04:00:49.671Z,5.90
2019-04-22T04:02:38.883Z,6.80
2019-04-22T04:03:29.022Z,6.90
2019-04-22T04:04:36.903Z,5.60
2019-04-22T04:05:49.626Z,6.30
2019-04-22T04:06:50.939Z,6.60
2019-04-22T04:08:33.609Z,6.50
2019-04-22T04:09:45.635Z,5.90
2019-04-22T04:11:43.288Z,6.40
2019-04-22T04:12:37.757Z,5.70
2019-04-22T04:13:34.069Z,6.30
2019-04-22T04:14:35.917Z,6.20
2019-04-22T04:15:30.000Z,6.10
2019-04-22T04:16:39.600Z,6.50
2019-04-22T04:17:36.970Z,6.80
2019-04-22T04:18:41.101Z,6.40
2019-04-22T04:24:03.367Z,6.00
2019-04-22T04:24:57.945Z,6.30
2019-04-22T04:26:51.121Z,6.30
2019-04-22T04:29:48.827Z,6.40
2019-04-22T04:30:33.953Z,6.50
2019-04-22T04:31:44.281Z,6.10
2019-04-22T04:32:41.622Z,6.40
2019-04-22T04:33:38.833Z,6.50
2019-04-22T04:34:54.301Z,6.60
2019-04-22T04:35:44.146Z,6.40
2019-04-22T04:36:34.721Z,6.50
2019-04-22T04:38:42.906Z,6.40
2019-04-22T04:39:51.173Z,6.90
2019-04-22T04:40:35.028Z,6.50
2019-04-22T04:41:58.851Z,6.40
2019-04-22T04:42:43.066Z,6.40
2019-04-22T04:43:50.204Z,6.30
2019-04-22T04:44:52.230Z,7.20
2019-04-22T04:48:42.345Z,7.40
2019-04-22T04:51:56.000Z,8.10
2019-04-22T04:53:29.316Z,8.00
2019-04-22T04:54:37.616Z,8.40
2019-04-22T04:55:46.304Z,8.60
2019-04-22T04:56:36.390Z,8.10
2019-04-22T04:57:52.432Z,7.50
2019-04-22T04:59:50.788Z,7.50
2019-04-22T05:01:39.777Z,7.40
2019-04-22T05:04:46.523Z,7.50
2019-04-22T05:05:31.490Z,7.30
2019-04-22T05:07:44.225Z,7.00
2019-04-22T05:08:52.127Z,7.30
2019-04-22T05:09:26.405Z,6.60
2019-04-22T05:12:45.881Z,7.50
2019-04-22T05:13:39.605Z,6.90
2019-04-22T05:14:52.567Z,6.80
2019-04-22T05:15:29.738Z,6.20
2019-04-22T05:16:47.970Z,6.40
2019-04-22T05:17:35.825Z,6.60
2019-04-22T05:19:47.287Z,6.50
2019-04-22T05:21:48.125Z,6.40
2019-04-22T05:23:30.033Z,6.20
2019-04-22T05:24:31.396Z,6.40
2019-04-22T05:25:27.255Z,6.50
2019-04-22T05:26:37.629Z,5.80
2019-04-22T05:28:42.259Z,6.50
2019-04-22T05:30:00.154Z,6.50
2019-04-22T05:30:32.634Z,6.10
2019-04-22T05:31:33.988Z,5.60
2019-04-22T05:32:30.703Z,5.50
2019-04-22T05:33:28.874Z,5.30
2019-04-22T05:34:28.016Z,5.80
2019-04-22T05:35:26.598Z,6.00
2019-04-22T05:36:28.334Z,5.40
2019-04-22T05:37:30.999Z,6.20
2019-04-22T05:38:36.319Z,5.70
2019-04-22T05:39:24.210Z,5.20
2019-04-22T05:40:34.631Z,5.90
2019-04-22T05:41:28.995Z,5.30
2019-04-22T05:42:26.390Z,5.70
2019-04-22T05:43:29.410Z,5.20
2019-04-22T05:44:32.925Z,5.70
2019-04-22T05:45:38.638Z,5.90
2019-04-22T05:46:30.958Z,5.30
2019-04-22T05:47:26.089Z,5.00
2019-04-22T05:48:37.280Z,5.70
2019-04-22T05:49:25.155Z,5.70
2019-04-22T05:50:24.555Z,5.00
2019-04-22T05:51:31.467Z,5.50
2019-04-22T05:52:24.943Z,5.10
2019-04-22T05:53:25.452Z,5.20
2019-04-22T05:54:31.691Z,5.30
2019-04-22T05:55:33.281Z,4.90
2019-04-22T05:56:34.251Z,5.20
2019-04-22T05:57:24.386Z,5.40
2019-04-22T05:58:36.416Z,5.10
2019-04-22T05:59:32.874Z,5.20
2019-04-22T06:01:04.258Z,4.90
2019-04-22T06:01:38.607Z,5.20
2019-04-22T06:02:43.060Z,5.20
2019-04-22T06:03:35.289Z,5.10
2019-04-22T06:04:25.531Z,4.80
2019-04-22T06:05:31.937Z,5.40
2019-04-22T06:06:22.735Z,4.10
2019-04-22T06:07:26.406Z,4.60
2019-04-22T06:08:23.255Z,5.30
2019-04-22T06:09:30.720Z,4.80
2019-04-22T06:10:34.428Z,4.80
2019-04-22T06:11:29.536Z,5.10
2019-04-22T06:12:23.473Z,5.40
2019-04-22T06:13:23.578Z,5.50
2019-04-22T06:14:24.891Z,4.60
2019-04-22T06:15:24.263Z,4.80
2019-04-22T06:16:31.022Z,4.70
2019-04-22T06:17:31.700Z,4.90
2019-04-22T06:18:27.191Z,4.60
2019-04-22T06:19:25.413Z,5.00
2019-04-22T06:20:25.595Z,5.00
2019-04-22T06:21:28.080Z,4.70
2019-04-22T06:23:34.643Z,5.00
2019-04-22T06:24:49.118Z,4.40
2019-04-22T06:25:39.488Z,4.90
2019-04-22T06:27:28.742Z,4.80
2019-04-22T06:28:36.988Z,5.20
2019-04-22T06:29:26.661Z,5.20
2019-04-22T06:30:43.183Z,5.70
2019-04-22T06:31:32.394Z,4.90
2019-04-22T06:33:27.180Z,4.90
2019-04-22T06:34:30.839Z,4.90
2019-04-22T06:36:29.482Z,5.10
2019-04-22T06:37:26.102Z,4.20
2019-04-22T06:38:39.178Z,5.10
2019-04-22T06:39:38.263Z,4.20
2019-04-22T06:40:27.545Z,4.30
2019-04-22T06:41:29.886Z,4.10
2019-04-22T06:42:28.397Z,4.50
2019-04-22T06:43:29.627Z,4.10
2019-04-22T06:46:28.882Z,4.50
2019-04-22T06:47:47.342Z,4.00
2019-04-22T06:48:30.047Z,4.80
2019-04-22T06:49:33.233Z,4.40
2019-04-22T06:50:34.029Z,4.60
2019-04-22T06:51:26.947Z,4.40
2019-04-22T06:52:22.880Z,4.30
2019-04-22T06:53:29.799Z,5.00
2019-04-22T06:54:35.122Z,4.20
2019-04-22T06:55:29.799Z,4.60
2019-04-22T06:56:22.036Z,4.70
2019-04-22T06:57:25.359Z,5.20
2019-04-22T06:58:22.915Z,4.60
2019-04-22T06:59:24.920Z,4.90
2019-04-22T07:00:42.899Z,4.90
2019-04-22T07:02:33.315Z,4.10
2019-04-22T07:04:22.721Z,4.10
2019-04-22T07:05:27.564Z,4.10
2019-04-22T07:06:35.435Z,4.00
2019-04-22T07:07:25.251Z,4.40
2019-04-22T07:09:02.338Z,4.20
2019-04-22T07:10:35.164Z,5.10
2019-04-22T07:11:23.693Z,4.50
2019-04-22T07:13:27.368Z,4.30
2019-04-22T07:14:23.828Z,4.40
2019-04-22T07:15:44.225Z,3.90
2019-04-22T07:17:38.015Z,3.80
2019-04-22T07:18:31.184Z,4.70
2019-04-22T07:19:31.888Z,4.40
2019-04-22T07:21:25.766Z,5.00
2019-04-22T07:22:29.290Z,4.90
2019-04-22T07:24:41.834Z,4.00
2019-04-22T07:25:23.575Z,4.00
2019-04-22T07:26:31.956Z,3.60
2019-04-22T07:27:40.426Z,3.70
2019-04-22T07:28:39.376Z,3.50
2019-04-22T07:29:29.771Z,4.20
2019-04-22T07:30:26.282Z,4.00
2019-04-22T07:32:40.054Z,4.30
2019-04-22T07:34:27.661Z,3.90
2019-04-22T07:35:28.855Z,3.70
2019-04-22T07:37:34.308Z,4.20
2019-04-22T07:39:39.227Z,4.00
2019-04-22T07:40:26.993Z,3.90
2019-04-22T07:41:27.370Z,2.90
2019-04-22T07:42:28.174Z,4.00
2019-04-22T07:45:25.061Z,4.00
2019-04-22T07:46:26.622Z,3.80
2019-04-22T07:48:35.676Z,3.70
2019-04-22T07:49:33.594Z,3.50
2019-04-22T07:50:37.833Z,4.10
2019-04-22T07:51:27.069Z,3.60
2019-04-22T07:52:16.028Z,3.90
2019-04-22T07:53:22.957Z,3.40
2019-04-22T07:54:28.022Z,3.00
2019-04-22T07:55:18.358Z,3.30
2019-04-22T07:56:24.585Z,3.80
2019-04-22T07:57:28.710Z,3.90
2019-04-22T07:58:29.025Z,3.50
2019-04-22T07:59:43.720Z,3.70
2019-04-22T08:00:32.266Z,3.50
2019-04-22T08:01:26.918Z,3.60
2019-04-22T08:02:26.128Z,3.90
2019-04-22T08:03:30.847Z,4.60
2019-04-22T08:04:36.200Z,4.20
2019-04-22T08:05:29.941Z,3.80
2019-04-22T08:06:26.775Z,3.50
2019-04-22T08:08:26.044Z,2.80
2019-04-22T08:09:32.935Z,3.50
2019-04-22T08:10:31.403Z,3.70
2019-04-22T08:11:43.738Z,4.00
2019-04-22T08:12:31.834Z,3.60
2019-04-22T08:13:24.793Z,3.20
2019-04-22T08:14:32.888Z,3.30
2019-04-22T08:15:31.134Z,3.80
2019-04-22T08:16:26.375Z,3.10
2019-04-22T08:18:27.587Z,3.40
2019-04-22T08:20:28.897Z,3.20
2019-04-22T08:21:23.764Z,3.60
2019-04-22T08:22:20.987Z,3.10
2019-04-22T08:24:29.346Z,3.20
2019-04-22T08:25:26.555Z,3.40
2019-04-22T08:26:30.349Z,2.50
2019-04-22T08:27:22.581Z,3.20
2019-04-22T08:29:43.809Z,3.30
2019-04-22T08:30:28.327Z,3.00
2019-04-22T08:31:28.289Z,2.70
2019-04-22T08:32:28.007Z,3.60
2019-04-22T08:33:29.311Z,2.80
2019-04-22T08:34:27.537Z,3.20
2019-04-22T08:35:29.758Z,3.10
2019-04-22T08:36:26.023Z,3.00
2019-04-22T08:38:37.611Z,3.20
2019-04-22T08:39:25.250Z,3.70
2019-04-22T08:40:28.792Z,3.00
2019-04-22T08:41:31.879Z,3.00
2019-04-22T08:42:35.439Z,3.40
2019-04-22T08:43:32.645Z,3.50
2019-04-22T08:44:39.018Z,3.10
2019-04-22T08:45:33.397Z,2.60
2019-04-22T08:46:33.571Z,3.20
2019-04-22T08:48:24.860Z,2.30
2019-04-22T08:49:21.776Z,2.80
2019-04-22T08:50:31.226Z,1.50
2019-04-22T08:51:25.438Z,2.80
2019-04-22T08:52:27.531Z,2.60
2019-04-22T08:53:28.181Z,2.80
2019-04-22T08:54:25.977Z,2.40
2019-04-22T08:55:29.601Z,2.40
2019-04-22T08:56:43.980Z,2.50
2019-04-22T08:57:40.831Z,3.20
2019-04-22T08:59:21.789Z,2.90
2019-04-22T09:00:34.364Z,2.80
2019-04-22T09:02:25.781Z,2.50
2019-04-22T09:03:32.680Z,2.40
2019-04-22T09:04:20.887Z,2.50
2019-04-22T09:05:42.335Z,2.70
2019-04-22T09:07:39.181Z,2.40
2019-04-22T09:08:26.732Z,2.10
2019-04-22T09:09:27.033Z,2.20
2019-04-22T09:10:24.459Z,2.50
2019-04-22T09:11:26.705Z,2.50
2019-04-22T09:12:37.046Z,2.60
2019-04-22T09:13:30.066Z,2.60
2019-04-22T09:14:32.519Z,2.70
2019-04-22T09:15:29.813Z,2.30
2019-04-22T09:16:32.098Z,2.60
2019-04-22T09:17:34.863Z,2.50
2019-04-22T09:18:28.766Z,2.20
2019-04-22T09:19:22.427Z,2.40
2019-04-22T09:20:26.033Z,2.70
2019-04-22T09:21:38.892Z,2.40
2019-04-22T09:22:21.823Z,2.90
2019-04-22T09:24:23.364Z,2.00
2019-04-22T09:25:24.076Z,2.80
2019-04-22T09:26:30.774Z,2.20
2019-04-22T09:28:24.386Z,2.10
2019-04-22T09:29:28.831Z,2.30
2019-04-22T09:30:27.473Z,2.10
2019-04-22T09:31:23.995Z,2.50
2019-04-22T09:32:26.412Z,2.60
2019-04-22T09:33:27.540Z,2.70
2019-04-22T09:34:23.451Z,1.50
2019-04-22T09:35:25.204Z,1.90
2019-04-22T09:36:40.802Z,2.20
2019-04-22T09:37:29.015Z,2.60
2019-04-22T09:38:31.450Z,2.40
2019-04-22T09:39:30.234Z,2.20
2019-04-22T09:40:21.768Z,2.20
2019-04-22T09:41:27.124Z,2.10
2019-04-22T09:42:24.629Z,2.00
2019-04-22T09:43:32.205Z,1.90
2019-04-22T09:44:21.743Z,2.10
2019-04-22T09:45:22.932Z,1.80
2019-04-22T09:46:28.317Z,2.20
2019-04-22T09:47:24.900Z,2.30
2019-04-22T09:48:33.650Z,2.50
2019-04-22T09:49:26.707Z,2.70
2019-04-22T09:50:30.609Z,2.80
2019-04-22T09:51:25.280Z,2.40
2019-04-22T09:52:20.575Z,2.30
2019-04-22T09:53:22.514Z,1.70
2019-04-22T09:54:30.805Z,1.90
2019-04-22T09:55:26.631Z,2.40
2019-04-22T09:56:23.846Z,2.50
2019-04-22T09:57:24.434Z,2.20
2019-04-22T09:58:29.581Z,1.90
2019-04-22T09:59:25.162Z,1.70
2019-04-22T10:00:25.489Z,2.10
2019-04-22T10:02:38.972Z,2.40
2019-04-22T10:03:19.558Z,1.80
2019-04-22T10:04:21.804Z,2.50
2019-04-22T10:05:28.522Z,1.80
2019-04-22T10:06:29.430Z,2.20
2019-04-22T10:07:27.219Z,2.80
2019-04-22T10:08:38.376Z,2.00
2019-04-22T10:10:21.885Z,2.20
2019-04-22T10:12:29.815Z,2.00
2019-04-22T10:13:29.730Z,2.00
2019-04-22T10:14:28.958Z,1.30
2019-04-22T10:16:37.459Z,1.70
2019-04-22T10:18:29.202Z,1.70
2019-04-22T10:19:26.340Z,2.00
2019-04-22T10:20:27.096Z,2.90
2019-04-22T10:21:35.298Z,2.40
2019-04-22T10:22:27.569Z,2.20
2019-04-22T10:23:25.198Z,1.30
2019-04-22T10:24:19.135Z,2.00
2019-04-22T10:25:25.235Z,2.40
2019-04-22T10:26:31.817Z,2.10
2019-04-22T10:27:24.351Z,1.90
2019-04-22T10:28:24.845Z,2.50
2019-04-22T10:29:24.809Z,2.10
2019-04-22T10:30:33.818Z,2.50
2019-04-22T10:31:29.428Z,2.30
2019-04-22T10:32:27.859Z,2.60
2019-04-22T10:33:15.818Z,2.00
2019-04-22T10:34:11.572Z,2.20
2019-04-22T10:35:03.080Z,2.00
2019-04-22T10:35:59.360Z,2.50
2019-04-22T10:37:02.190Z,2.50
2019-04-22T10:37:58.554Z,2.70
2019-04-22T10:38:58.205Z,2.10
2019-04-22T10:40:00.966Z,2.60
2019-04-22T10:40:58.660Z,2.60
2019-04-22T10:41:57.249Z,2.20
2019-04-22T10:42:57.268Z,2.10
2019-04-22T10:43:57.225Z,2.40
2019-04-22T10:44:57.347Z,2.50
2019-04-22T10:45:57.831Z,2.40
2019-04-22T10:46:58.071Z,2.30
2019-04-22T10:47:58.346Z,2.00
2019-04-22T10:48:57.956Z,2.50
2019-04-22T10:49:58.264Z,3.10
2019-04-22T10:50:57.155Z,2.20
2019-04-22T10:51:58.383Z,1.60
2019-04-22T10:52:57.455Z,2.60
2019-04-22T10:53:57.620Z,2.50
2019-04-22T10:54:57.114Z,2.50
2019-04-22T10:55:57.101Z,2.50
2019-04-22T10:56:57.093Z,2.20
2019-04-22T10:57:57.092Z,2.40
2019-04-22T10:58:58.355Z,2.20
2019-04-22T10:59:58.275Z,2.80
2019-04-22T11:00:58.213Z,1.30
2019-04-22T11:01:57.035Z,2.30
2019-04-22T11:02:57.968Z,2.30
2019-04-22T11:03:57.213Z,2.50
2019-04-22T11:04:58.461Z,2.60
2019-04-22T11:05:57.195Z,2.40
2019-04-22T11:07:01.968Z,2.10
2019-04-22T11:08:03.127Z,2.50
2019-04-22T11:09:01.759Z,2.70
2019-04-22T11:10:17.538Z,2.50
2019-04-22T11:11:10.893Z,2.70
2019-04-22T11:12:04.521Z,2.20
2019-04-22T11:12:59.030Z,2.40
2019-04-22T11:13:58.066Z,2.00
2019-04-22T11:14:58.180Z,1.90
2019-04-22T11:15:58.284Z,2.50
2019-04-22T11:16:59.780Z,2.20
2019-04-22T11:17:57.719Z,2.30
2019-04-22T11:18:56.857Z,2.10
2019-04-22T11:19:57.508Z,2.50
2019-04-22T11:20:57.803Z,2.30
2019-04-22T11:22:06.329Z,3.00
2019-04-22T11:22:58.495Z,2.20
2019-04-22T11:23:56.812Z,2.10
2019-04-22T11:24:59.905Z,2.10
2019-04-22T11:25:57.619Z,1.90
2019-04-22T11:26:57.100Z,1.90
2019-04-22T11:27:57.802Z,2.30
2019-04-22T11:28:56.753Z,2.00
2019-04-22T11:29:57.378Z,2.00
2019-04-22T11:30:56.731Z,1.90
2019-04-22T11:31:56.727Z,2.70
2019-04-22T11:32:58.283Z,2.10
2019-04-22T11:33:56.744Z,2.70
2019-04-22T11:34:57.984Z,2.30
2019-04-22T11:35:57.571Z,2.30
2019-04-22T11:36:56.912Z,2.40
2019-04-22T11:37:56.884Z,2.20
2019-04-22T11:39:01.990Z,2.60
2019-04-22T11:40:10.052Z,2.90
2019-04-22T11:40:59.434Z,2.20
2019-04-22T11:41:58.289Z,3.00
2019-04-22T11:42:56.631Z,2.60
2019-04-22T11:43:56.963Z,1.80
2019-04-22T11:44:57.152Z,2.30
2019-04-22T11:45:57.484Z,2.20
2019-04-22T11:46:57.212Z,2.40
2019-04-22T11:47:57.247Z,1.70
2019-04-22T11:48:57.857Z,1.40
2019-04-22T11:49:57.748Z,1.60
2019-04-22T11:50:57.768Z,2.10
2019-04-22T11:51:56.517Z,2.40
2019-04-22T11:52:56.501Z,2.60
2019-04-22T11:53:56.761Z,1.80
2019-04-22T11:54:56.983Z,2.10
2019-04-22T11:55:56.475Z,2.10
2019-04-22T11:56:56.866Z,2.10
2019-04-22T11:57:56.459Z,1.90
2019-04-22T11:58:57.085Z,1.40
2019-04-22T11:59:56.606Z,2.00
2019-04-22T12:00:57.051Z,2.00
2019-04-22T12:01:57.054Z,1.80
2019-04-22T12:02:56.743Z,2.00
2019-04-22T12:03:57.818Z,1.80
2019-04-22T12:04:56.375Z,1.90
2019-04-22T12:05:57.703Z,2.10
2019-04-22T12:06:57.877Z,1.80
2019-04-22T12:07:57.315Z,1.60
2019-04-22T12:08:57.556Z,1.60
2019-04-22T12:09:57.493Z,1.90
2019-04-22T12:11:00.071Z,2.30
2019-04-22T12:11:58.056Z,1.70
2019-04-22T12:12:57.668Z,1.90
2019-04-22T12:13:56.302Z,2.10
2019-04-22T12:14:56.437Z,1.20
2019-04-22T12:15:56.264Z,2.00
2019-04-22T12:16:57.314Z,2.00
2019-04-22T12:17:57.343Z,1.70
2019-04-22T12:18:58.469Z,2.00
2019-04-22T12:19:56.222Z,1.60
2019-04-22T12:20:57.095Z,1.80
2019-04-22T12:21:57.185Z,1.90
2019-04-22T12:22:56.768Z,1.80
2019-04-22T12:23:56.905Z,1.90
2019-04-22T12:24:56.582Z,1.40
2019-04-22T12:26:03.478Z,1.60
2019-04-22T12:26:58.049Z,2.00
2019-04-22T12:27:56.982Z,2.20
2019-04-22T12:28:57.246Z,1.70
2019-04-22T12:29:56.758Z,1.40
2019-04-22T12:30:57.311Z,1.40
2019-04-22T12:31:57.669Z,1.50
2019-04-22T12:32:56.081Z,1.80
2019-04-22T12:33:57.324Z,1.70
2019-04-22T12:34:57.464Z,1.40
2019-04-22T12:35:56.842Z,1.50
2019-04-22T12:36:56.360Z,1.80
2019-04-22T12:38:02.504Z,1.70
2019-04-22T12:38:57.792Z,1.50
2019-04-22T12:39:56.595Z,1.10
2019-04-22T12:41:00.667Z,1.90
2019-04-22T12:41:58.275Z,1.70
2019-04-22T12:42:57.522Z,2.00
2019-04-22T12:43:55.994Z,1.80
2019-04-22T12:44:56.045Z,1.80
2019-04-22T12:45:56.308Z,2.20
2019-04-22T12:46:56.441Z,2.10
2019-04-22T12:47:56.066Z,1.70
2019-04-22T12:48:56.279Z,1.80
2019-04-22T12:50:06.857Z,1.60
2019-04-22T12:50:58.530Z,2.10
2019-04-22T12:51:57.087Z,1.80
2019-04-22T12:53:01.287Z,1.50
2019-04-22T12:53:57.175Z,1.80
2019-04-22T12:54:57.273Z,1.80
2019-04-22T12:55:57.435Z,1.80
2019-04-22T12:56:55.831Z,1.90
2019-04-22T12:57:58.658Z,2.20
2019-04-22T12:58:55.994Z,1.80
2019-04-22T12:59:55.824Z,2.40
2019-04-22T13:00:57.060Z,2.20
2019-04-22T13:01:56.948Z,1.60
2019-04-22T13:02:56.835Z,2.30
2019-04-22T13:04:02.055Z,1.90
2019-04-22T13:04:57.933Z,1.40
2019-04-22T13:05:55.924Z,2.30
2019-04-22T13:06:55.732Z,1.80
2019-04-22T13:07:55.829Z,2.00
2019-04-22T13:08:56.592Z,2.10
2019-04-22T13:09:57.037Z,2.50
2019-04-22T13:11:04.158Z,2.00
2019-04-22T13:11:57.176Z,2.20
2019-04-22T13:12:57.026Z,2.20
2019-04-22T13:13:56.777Z,2.20
2019-04-22T13:14:57.116Z,2.10
2019-04-22T13:15:57.017Z,1.60
2019-04-22T13:16:55.635Z,2.00
2019-04-22T13:18:06.001Z,2.00
2019-04-22T13:19:02.183Z,1.70
2019-04-22T13:19:56.613Z,1.90
2019-04-22T13:20:56.747Z,2.10
2019-04-22T13:21:56.601Z,1.50
2019-04-22T13:22:56.835Z,1.90
2019-04-22T13:23:56.786Z,1.70
2019-04-22T13:24:55.565Z,2.20
2019-04-22T13:25:56.743Z,2.40
2019-04-22T13:26:56.827Z,2.20
2019-04-22T13:27:55.517Z,2.10
2019-04-22T13:28:56.955Z,2.00
2019-04-22T13:29:55.509Z,1.90
2019-04-22T13:30:58.426Z,1.80
2019-04-22T13:31:55.475Z,1.90
2019-04-22T13:32:56.631Z,1.90
2019-04-22T13:33:58.048Z,1.70
2019-04-22T13:34:59.947Z,1.80
2019-04-22T13:35:57.539Z,1.90
2019-04-22T13:36:56.501Z,1.30
2019-04-22T13:37:55.416Z,1.80
2019-04-22T13:38:55.406Z,2.20
2019-04-22T13:39:56.839Z,2.00
2019-04-22T13:41:09.747Z,2.20
2019-04-22T13:42:02.270Z,1.90
2019-04-22T13:42:56.355Z,2.50
2019-04-22T13:43:56.066Z,2.00
2019-04-22T13:44:55.918Z,1.90
2019-04-22T13:45:56.166Z,1.80
2019-04-22T13:47:17.449Z,2.30
2019-04-22T13:48:11.144Z,1.90
2019-04-22T13:49:27.114Z,2.00
2019-04-22T13:52:35.685Z,1.80
2019-04-22T13:53:42.576Z,2.30
2019-04-22T13:55:25.461Z,1.80
2019-04-22T13:56:12.505Z,1.80
2019-04-22T13:57:18.366Z,2.20
2019-04-22T13:58:08.459Z,2.00
2019-04-22T13:59:07.272Z,1.20
2019-04-22T13:59:59.829Z,1.70
2019-04-22T14:00:56.435Z,1.90
2019-04-22T14:01:56.458Z,2.30
2019-04-22T14:02:55.150Z,2.30
2019-04-22T14:03:56.594Z,1.80
2019-04-22T14:04:55.159Z,2.10
2019-04-22T14:05:55.177Z,1.90
2019-04-22T14:06:56.606Z,2.00
2019-04-22T14:07:57.118Z,1.70
2019-04-22T14:08:55.680Z,1.90
2019-04-22T14:09:56.073Z,1.80
2019-04-22T14:10:56.703Z,1.70
2019-04-22T14:12:00.095Z,1.80
2019-04-22T14:12:57.035Z,1.90
2019-04-22T14:13:56.606Z,2.00
2019-04-22T14:14:56.358Z,2.20
2019-04-22T14:15:56.975Z,1.90
2019-04-22T14:16:55.222Z,1.80
2019-04-22T14:17:54.992Z,1.90
2019-04-22T14:18:55.993Z,1.80
2019-04-22T14:19:55.085Z,1.80
2019-04-22T14:20:56.610Z,1.60
2019-04-22T14:21:55.652Z,1.70
2019-04-22T14:22:54.935Z,1.70
2019-04-22T14:23:56.358Z,2.30
2019-04-22T14:24:54.913Z,2.20
2019-04-22T14:25:54.927Z,1.60
2019-04-22T14:27:08.579Z,2.00
2019-04-22T14:28:01.937Z,1.90
2019-04-22T14:28:55.920Z,2.00
2019-04-22T14:29:55.632Z,1.50
2019-04-22T14:30:54.867Z,2.20
2019-04-22T14:32:05.536Z,2.10
2019-04-22T14:32:55.997Z,1.60
2019-04-22T14:33:59.171Z,1.30
2019-04-22T14:34:57.108Z,1.80
2019-04-22T14:35:56.037Z,1.70
2019-04-22T14:36:55.269Z,1.50
2019-04-22T14:37:56.338Z,1.90
2019-04-22T14:38:54.799Z,2.20
2019-04-22T14:39:55.788Z,1.70
2019-04-22T14:40:56.143Z,1.70
2019-04-22T14:42:13.897Z,1.50
2019-04-22T14:43:13.829Z,1.40
2019-04-22T14:44:56.616Z,1.30
2019-04-22T14:45:22.084Z,1.90
2019-04-22T14:46:24.614Z,1.20
2019-04-22T14:47:20.099Z,2.00
2019-04-22T14:48:20.334Z,1.80
2019-04-22T14:49:22.401Z,1.10
2019-04-22T14:50:17.802Z,1.60
2019-04-22T14:51:11.491Z,1.20
2019-04-22T14:52:21.275Z,1.40
2019-04-22T14:53:19.483Z,2.00
2019-04-22T14:54:13.898Z,2.20
2019-04-22T14:55:05.974Z,1.80
2019-04-22T14:55:55.601Z,1.90